Airport View

Enter AWOS ICAO identifier for current METAR.

ex. KFNL

KEVB 262215Z 31005KT 8SM FEW010 SCT015 BKN040 17/16 A2995

26 Feb 2020 22:47

Frequency: 124.625

Phone: 386-409-4705

Other Area AWOS: KDAB - KOMN - KDED - KSFB

TAF COR KDAB 262035Z 2618/2718 35006KT P6SM VCTS SCT025CB OVC035 TEMPO 2620/2622 2SM TSRA BKN025CB FM270000 29009KT P6SM SHRA BKN030 OVC070 FM270800 30009KT P6SM SCT035 OVC120 FM271100 31011KT P6SM SKC